Talcott Village, Connecticut
Current Conditions -  °F | °C
As of 2:53 AM on Saturday 01 Nov 2014 (Local Time) from KHFD Reporting Station
Overcast Overcast  
Wind Chill: 40°   Ceiling: 5500
Heat Index: 46°   Visibility: 10mi
Dew Point: 38°   Wind: 14mph
Humidity: 73%   Direction: 10°N
Pressure: 29.9"   Gusts: NA
Location:  41.7251°N, 72.8318°W
Report Text: KHFD 010653Z AUTO 01012KT 10SM OVC055 08/03 A2990 RMK AO2 RAB18E41 SLP124 P0000 T00780033
Loading
Personal Weather Stations






























Interactive Weather Map
Tropical Storm Tracking
New forecast layout! Learn more

10-Day Weather Forecast

Advertisements
Track Severe Weather on mobile